Time;durP1;ratioP1;P1;durP2;ratioP2;P2;SDS_P1;SDS_P2;PMS_P1;PMS_P2;Temp;Humidity;BMP_temperature;BMP_pressure;BME280_temperature;BME280_humidity;BME280_pressure;Samples;Min_cycle;Max_cycle;Signal;HPM_P1;HPM_P2
2022/02/04 00:46:18;;;;;;;60.50;33.20;;;;;;;;;;6275479;22;20039;-94
2022/02/04 00:49:19;;;;;;;59.90;33.03;;;;;;;;;;6255978;23;20012;-95
2022/02/04 00:52:15;;;;;;;63.88;34.50;;;;;;;;;;6251019;23;20061;-95
2022/02/04 01:30:19;;;;;;;58.35;32.85;;;;;;;;;;6274437;22;20054;-94
2022/02/04 01:32:47;;;;;;;56.33;32.67;;;;;;;;;;6248359;22;20023;-95
2022/02/04 01:35:14;;;;;;;62.25;33.55;;;;;;;;;;6248746;22;20077;-94
2022/02/04 01:37:47;;;;;;;63.38;32.45;;;;;;;;;;6250135;22;20044;-94
2022/02/04 01:40:16;;;;;;;63.72;34.67;;;;;;;;;;6248721;22;20008;-92
2022/02/04 01:42:57;;;;;;;57.40;33.45;;;;;;;;;;6246960;22;20008;-95
2022/02/04 01:45:24;;;;;;;56.40;31.75;;;;;;;;;;6247948;22;20032;-94
2022/02/04 01:47:58;;;;;;;66.68;35.30;;;;;;;;;;6248232;22;20039;-94
2022/02/04 01:50:27;;;;;;;63.30;34.95;;;;;;;;;;6248115;22;20024;-93
2022/02/04 01:56:51;;;;;;;65.38;34.22;;;;;;;;;;6274088;22;19999;-93
2022/02/04 01:59:18;;;;;;;63.90;34.92;;;;;;;;;;6248076;22;20009;-94
2022/02/04 02:01:45;;;;;;;61.75;35.45;;;;;;;;;;6248081;22;20015;-94
2022/02/04 02:04:14;;;;;;;63.95;34.85;;;;;;;;;;6248073;22;20038;-94
2022/02/04 02:06:55;;;;;;;65.88;35.20;;;;;;;;;;6248230;22;20019;-93
2022/02/04 02:09:57;;;;;;;67.95;35.72;;;;;;;;;;6130991;23;20006;-94
2022/02/04 02:12:27;;;;;;;66.47;35.97;;;;;;;;;;6128090;23;20097;-94
2022/02/04 02:15:21;;;;;;;65.00;35.72;;;;;;;;;;6128578;23;20037;-93
2022/02/04 02:44:40;;;;;;;56.75;33.35;;;;;;;;;;6154069;23;20029;-93
2022/02/04 02:52:25;;;;;;;60.85;33.20;;;;;;;;;;6245032;23;20009;-94
2022/02/04 03:04:39;;;;;;;56.35;30.33;;;;;;;;;;6245258;23;20060;-94
2022/02/04 03:07:07;;;;;;;58.10;31.70;;;;;;;;;;6219670;23;20009;-94
2022/02/04 03:09:33;;;;;;;57.85;30.88;;;;;;;;;;6219492;23;20039;-93
2022/02/04 03:12:00;;;;;;;62.50;32.55;;;;;;;;;;6219278;23;20073;-94
2022/02/04 03:14:28;;;;;;;56.88;31.25;;;;;;;;;;6219680;23;20064;-93
2022/02/04 03:16:56;;;;;;;56.75;31.00;;;;;;;;;;6219526;23;20008;-93
2022/02/04 03:19:23;;;;;;;56.80;30.52;;;;;;;;;;6219586;23;20012;-93
2022/02/04 03:21:50;;;;;;;55.85;28.90;;;;;;;;;;6219562;23;20015;-93
2022/02/04 03:24:21;;;;;;;56.20;30.33;;;;;;;;;;6219411;23;20012;-94
2022/02/04 03:26:56;;;;;;;56.08;31.30;;;;;;;;;;6219618;23;20008;-92
2022/02/04 03:29:37;;;;;;;59.33;31.88;;;;;;;;;;6219638;23;20032;-93
2022/02/04 03:32:09;;;;;;;58.55;31.50;;;;;;;;;;6219490;23;20008;-93
2022/02/04 03:34:37;;;;;;;58.35;30.52;;;;;;;;;;6219541;23;20068;-94
2022/02/04 03:37:06;;;;;;;56.95;31.92;;;;;;;;;;6219573;23;20046;-94
2022/02/04 03:39:35;;;;;;;54.40;30.00;;;;;;;;;;6218982;23;20012;-93
2022/02/04 03:42:10;;;;;;;56.70;31.00;;;;;;;;;;6220868;23;20065;-94
2022/02/04 03:44:38;;;;;;;57.50;29.73;;;;;;;;;;6230845;22;20012;-94
2022/02/04 03:47:05;;;;;;;58.38;31.08;;;;;;;;;;6249270;22;20008;-93
2022/02/04 03:49:31;;;;;;;58.95;31.35;;;;;;;;;;6248955;22;20012;-94
2022/02/04 03:51:58;;;;;;;56.05;29.15;;;;;;;;;;6249275;22;20008;-94
2022/02/04 03:54:25;;;;;;;58.72;29.05;;;;;;;;;;6248949;22;20084;-93
2022/02/04 03:56:52;;;;;;;53.70;29.13;;;;;;;;;;6249382;22;20030;-93
2022/02/04 03:59:22;;;;;;;55.08;30.08;;;;;;;;;;6249270;22;20018;-94
2022/02/04 04:01:49;;;;;;;55.40;29.95;;;;;;;;;;6248751;22;20008;-94
2022/02/04 04:04:15;;;;;;;51.08;28.65;;;;;;;;;;6248710;22;20042;-92
2022/02/04 04:07:08;;;;;;;55.60;29.70;;;;;;;;;;6248750;22;20030;-93
2022/02/04 04:09:39;;;;;;;56.40;29.55;;;;;;;;;;6249113;22;20016;-94
2022/02/04 04:12:06;;;;;;;50.47;27.13;;;;;;;;;;6248830;22;20018;-93
2022/02/04 04:21:18;;;;;;;50.25;27.50;;;;;;;;;;6274957;22;19999;-93
2022/02/04 04:23:44;;;;;;;55.08;30.23;;;;;;;;;;6249260;22;20020;-94
2022/02/04 04:26:12;;;;;;;52.30;27.52;;;;;;;;;;6249191;22;20055;-93
2022/02/04 04:35:25;;;;;;;60.58;30.30;;;;;;;;;;6274963;22;20074;-93
2022/02/04 04:38:08;;;;;;;60.78;30.10;;;;;;;;;;6248932;22;20035;-94
2022/02/04 04:40:51;;;;;;;53.45;30.33;;;;;;;;;;6248779;22;20028;-93
2022/02/04 04:46:26;;;;;;;57.85;30.23;;;;;;;;;;6274218;22;20020;-94
2022/02/04 05:29:20;;;;;;;58.47;30.48;;;;;;;;;;6273931;22;20030;-94
2022/02/04 05:31:59;;;;;;;57.30;30.52;;;;;;;;;;6248066;22;20012;-94
2022/02/04 05:34:30;;;;;;;52.70;29.70;;;;;;;;;;6249032;22;20023;-93
2022/02/04 05:37:06;;;;;;;50.40;27.50;;;;;;;;;;6248683;22;20063;-93
2022/02/04 05:39:53;;;;;;;52.85;28.45;;;;;;;;;;6248389;22;20008;-93
2022/02/04 05:42:29;;;;;;;57.83;30.05;;;;;;;;;;6248798;22;20067;-93
2022/02/04 05:45:32;;;;;;;49.55;28.02;;;;;;;;;;6248671;22;20027;-93
2022/02/04 05:48:03;;;;;;;49.78;28.38;;;;;;;;;;6248181;22;20012;-92
2022/02/04 05:50:41;;;;;;;54.05;29.20;;;;;;;;;;6248264;22;20019;-94
2022/02/04 06:02:01;;;;;;;53.70;29.10;;;;;;;;;;6181847;23;20069;-94
2022/02/04 06:05:06;;;;;;;56.33;29.48;;;;;;;;;;6179806;23;20045;-93
2022/02/04 06:08:34;;;;;;;48.47;28.38;;;;;;;;;;6157681;23;20224;-93
2022/02/04 06:22:57;;;;;;;49.33;29.15;;;;;;;;;;6183325;23;20400;-93
2022/02/04 06:32:09;;;;;;;51.85;28.30;;;;;;;;;;6274683;22;20046;-94
2022/02/04 06:34:36;;;;;;;52.42;29.95;;;;;;;;;;6249456;22;20016;-95
2022/02/04 06:37:03;;;;;;;51.17;30.08;;;;;;;;;;6248413;22;20013;-94
2022/02/04 06:39:34;;;;;;;50.20;30.55;;;;;;;;;;6248076;22;20076;-93
2022/02/04 06:42:02;;;;;;;51.00;29.90;;;;;;;;;;6248791;22;20038;-93
2022/02/04 06:44:29;;;;;;;52.58;29.35;;;;;;;;;;6248507;23;20031;-93
2022/02/04 06:54:10;;;;;;;51.05;28.50;;;;;;;;;;6274876;22;20034;-94
2022/02/04 06:56:39;;;;;;;55.20;30.02;;;;;;;;;;6248294;22;20024;-95
2022/02/04 06:59:06;;;;;;;49.72;29.67;;;;;;;;;;6246565;22;20075;-93
2022/02/04 07:01:55;;;;;;;49.92;28.88;;;;;;;;;;6246950;22;20014;-94
2022/02/04 07:04:25;;;;;;;44.90;26.83;;;;;;;;;;6248226;23;20035;-94
2022/02/04 07:06:55;;;;;;;45.15;28.20;;;;;;;;;;6247767;22;20016;-93
2022/02/04 07:20:02;;;;;;;44.35;26.83;;;;;;;;;;6272479;22;20028;-94
2022/02/04 07:22:34;;;;;;;45.47;25.70;;;;;;;;;;6245980;22;20031;-95
2022/02/04 07:25:04;;;;;;;46.42;26.95;;;;;;;;;;6246028;22;20012;-95
2022/02/04 07:27:32;;;;;;;43.20;26.90;;;;;;;;;;6246752;22;20034;-95
2022/02/04 07:30:15;;;;;;;44.80;27.65;;;;;;;;;;6246093;22;20024;-94
2022/02/04 07:32:56;;;;;;;44.58;26.58;;;;;;;;;;6246277;23;20012;-95
2022/02/04 07:42:11;;;;;;;47.10;28.60;;;;;;;;;;6273664;22;19998;-94
2022/02/04 07:44:38;;;;;;;45.05;26.75;;;;;;;;;;6247049;22;20028;-94
2022/02/04 07:47:05;;;;;;;43.33;26.58;;;;;;;;;;6247541;22;20047;-95
2022/02/04 07:49:32;;;;;;;39.83;24.55;;;;;;;;;;6246535;22;20022;-95
2022/02/04 07:51:59;;;;;;;44.00;26.25;;;;;;;;;;6243561;23;20028;-95
2022/02/04 07:54:26;;;;;;;43.97;26.10;;;;;;;;;;6245027;23;20035;-94
2022/02/04 07:56:53;;;;;;;41.75;25.38;;;;;;;;;;6246292;22;20063;-94
2022/02/04 07:59:31;;;;;;;38.72;24.73;;;;;;;;;;6246110;22;20028;-94
2022/02/04 08:01:58;;;;;;;41.28;25.33;;;;;;;;;;6247800;22;20030;-95
2022/02/04 09:50:12;;;;;;;17.13;11.63;;;;;;;;;;6245490;22;20000;-94
2022/02/04 11:48:16;;;;;;;9.43;3.80;;;;;;;;;;6303330;22;20027;-94
2022/02/04 11:51:14;;;;;;;7.80;3.58;;;;;;;;;;6304435;22;20003;-94
2022/02/04 14:00:43;;;;;;;5.90;2.35;;;;;;;;;;6220209;22;20097;-92
2022/02/04 14:03:21;;;;;;;3.50;2.30;;;;;;;;;;6249829;22;20014;-94
2022/02/04 14:06:08;;;;;;;4.20;2.70;;;;;;;;;;6249887;22;20067;-95
2022/02/04 14:11:15;;;;;;;3.33;1.85;;;;;;;;;;6274162;22;20018;-95
2022/02/04 14:14:06;;;;;;;4.65;2.05;;;;;;;;;;6252920;22;20012;-95
2022/02/04 14:16:38;;;;;;;3.38;1.80;;;;;;;;;;6249595;22;20056;-95
2022/02/04 14:19:09;;;;;;;2.63;1.92;;;;;;;;;;6249327;22;20018;-95
2022/02/04 16:03:11;;;;;;;4.72;2.10;;;;;;;;;;6213450;23;20017;-94
2022/02/04 16:05:42;;;;;;;17.80;7.22;;;;;;;;;;6212823;23;20017;-94
2022/02/04 16:08:26;;;;;;;4.07;2.40;;;;;;;;;;6212232;23;20081;-93
